sensor_id;sensor_type;location;lat;lon;timestamp;pressure;altitude;pressure_sealevel;temperature;humidity
61478;BME280;47345;52.334;10.392;2023-06-22T00:01:24;101161.50;;;19.96;72.17
61478;BME280;47345;52.334;10.392;2023-06-22T00:03:56;101154.23;;;19.83;73.14
61478;BME280;47345;52.334;10.392;2023-06-22T00:06:27;101156.96;;;19.81;74.19
61478;BME280;47345;52.334;10.392;2023-06-22T00:08:57;101154.11;;;19.83;74.10
61478;BME280;47345;52.334;10.392;2023-06-22T00:11:28;101152.42;;;19.86;74.10
61478;BME280;47345;52.334;10.392;2023-06-22T00:14:01;101146.50;;;19.90;73.97
61478;BME280;47345;52.334;10.392;2023-06-22T00:16:31;101146.30;;;19.92;73.62
61478;BME280;47345;52.334;10.392;2023-06-22T00:19:02;101144.86;;;19.93;73.40
61478;BME280;47345;52.334;10.392;2023-06-22T00:21:33;101149.30;;;19.93;73.32
61478;BME280;47345;52.334;10.392;2023-06-22T00:24:05;101152.94;;;19.90;73.14
61478;BME280;47345;52.334;10.392;2023-06-22T00:26:37;101154.23;;;19.84;73.10
61478;BME280;47345;52.334;10.392;2023-06-22T00:29:07;101156.61;;;19.79;72.95
61478;BME280;47345;52.334;10.392;2023-06-22T00:31:39;101157.31;;;19.73;72.95
61478;BME280;47345;52.334;10.392;2023-06-22T00:34:10;101161.14;;;19.73;72.90
61478;BME280;47345;52.334;10.392;2023-06-22T00:36:41;101163.65;;;19.73;72.82
61478;BME280;47345;52.334;10.392;2023-06-22T00:39:12;101163.71;;;19.74;72.75
61478;BME280;47345;52.334;10.392;2023-06-22T00:41:43;101162.29;;;19.76;72.69
61478;BME280;47345;52.334;10.392;2023-06-22T00:44:14;101161.55;;;19.79;72.74
61478;BME280;47345;52.334;10.392;2023-06-22T00:46:45;101159.36;;;19.81;72.48
61478;BME280;47345;52.334;10.392;2023-06-22T00:49:16;101165.79;;;19.85;72.54
61478;BME280;47345;52.334;10.392;2023-06-22T00:51:47;101172.42;;;19.83;72.58
61478;BME280;47345;52.334;10.392;2023-06-22T00:54:18;101173.89;;;19.76;72.47
61478;BME280;47345;52.334;10.392;2023-06-22T00:56:54;101179.05;;;19.62;72.13
61478;BME280;47345;52.334;10.392;2023-06-22T00:59:27;101178.48;;;19.38;72.32
61478;BME280;47345;52.334;10.392;2023-06-22T01:01:58;101173.80;;;19.26;73.19
61478;BME280;47345;52.334;10.392;2023-06-22T01:04:36;101165.95;;;19.24;73.80
61478;BME280;47345;52.334;10.392;2023-06-22T01:07:13;101158.95;;;19.24;73.83
61478;BME280;47345;52.334;10.392;2023-06-22T01:09:53;101153.33;;;19.22;74.03
61478;BME280;47345;52.334;10.392;2023-06-22T01:12:30;101144.98;;;19.20;74.23
61478;BME280;47345;52.334;10.392;2023-06-22T01:15:07;101138.41;;;19.19;74.33
61478;BME280;47345;52.334;10.392;2023-06-22T01:17:41;101134.98;;;19.18;74.42
61478;BME280;47345;52.334;10.392;2023-06-22T01:20:15;101140.12;;;19.17;74.32
61478;BME280;47345;52.334;10.392;2023-06-22T01:22:57;101135.41;;;19.17;74.35
61478;BME280;47345;52.334;10.392;2023-06-22T01:25:38;101140.81;;;19.16;74.46
61478;BME280;47345;52.334;10.392;2023-06-22T01:28:24;101139.53;;;19.11;74.67
61478;BME280;47345;52.334;10.392;2023-06-22T01:30:57;101138.16;;;19.08;74.71
61478;BME280;47345;52.334;10.392;2023-06-22T01:33:37;101132.61;;;19.07;74.80
61478;BME280;47345;52.334;10.392;2023-06-22T01:36:08;101129.35;;;19.08;74.74
61478;BME280;47345;52.334;10.392;2023-06-22T01:38:40;101135.00;;;19.08;74.76
61478;BME280;47345;52.334;10.392;2023-06-22T01:41:12;101133.16;;;19.03;74.92
61478;BME280;47345;52.334;10.392;2023-06-22T01:43:44;101125.31;;;18.98;75.03
61478;BME280;47345;52.334;10.392;2023-06-22T01:46:16;101120.73;;;18.94;75.26
61478;BME280;47345;52.334;10.392;2023-06-22T01:48:49;101119.70;;;18.91;75.36
61478;BME280;47345;52.334;10.392;2023-06-22T01:51:21;101120.61;;;18.90;75.40
61478;BME280;47345;52.334;10.392;2023-06-22T01:53:52;101128.83;;;18.90;75.60
61478;BME280;47345;52.334;10.392;2023-06-22T01:56:23;101133.20;;;18.89;75.53
61478;BME280;47345;52.334;10.392;2023-06-22T01:59:02;101133.25;;;18.88;75.61
61478;BME280;47345;52.334;10.392;2023-06-22T02:01:39;101134.66;;;18.87;75.58
61478;BME280;47345;52.334;10.392;2023-06-22T02:04:17;101135.09;;;18.86;75.70
61478;BME280;47345;52.334;10.392;2023-06-22T02:06:51;101125.58;;;18.84;75.73
61478;BME280;47345;52.334;10.392;2023-06-22T02:09:28;101119.62;;;18.79;75.87
61478;BME280;47345;52.334;10.392;2023-06-22T02:12:01;101112.05;;;18.73;75.90
61478;BME280;47345;52.334;10.392;2023-06-22T02:14:33;101115.57;;;18.71;76.10
61478;BME280;47345;52.334;10.392;2023-06-22T02:17:05;101116.09;;;18.69;76.11
61478;BME280;47345;52.334;10.392;2023-06-22T02:19:39;101116.28;;;18.68;76.24
61478;BME280;47345;52.334;10.392;2023-06-22T02:22:11;101113.67;;;18.64;76.11
61478;BME280;47345;52.334;10.392;2023-06-22T02:24:42;101114.71;;;18.59;76.31
61478;BME280;47345;52.334;10.392;2023-06-22T02:27:13;101122.30;;;18.59;76.52
61478;BME280;47345;52.334;10.392;2023-06-22T02:29:44;101119.40;;;18.61;76.55
61478;BME280;47345;52.334;10.392;2023-06-22T02:32:15;101115.38;;;18.63;76.43
61478;BME280;47345;52.334;10.392;2023-06-22T02:34:47;101116.48;;;18.66;76.51
61478;BME280;47345;52.334;10.392;2023-06-22T02:37:18;101119.77;;;18.68;76.42
61478;BME280;47345;52.334;10.392;2023-06-22T02:39:49;101123.83;;;18.71;76.45
61478;BME280;47345;52.334;10.392;2023-06-22T02:42:20;101124.96;;;18.73;76.41
61478;BME280;47345;52.334;10.392;2023-06-22T02:44:51;101126.08;;;18.73;76.31
61478;BME280;47345;52.334;10.392;2023-06-22T02:47:21;101132.41;;;18.71;76.28
61478;BME280;47345;52.334;10.392;2023-06-22T02:49:52;101133.85;;;18.68;76.34
61478;BME280;47345;52.334;10.392;2023-06-22T02:52:23;101131.91;;;18.67;76.35
61478;BME280;47345;52.334;10.392;2023-06-22T02:54:53;101141.49;;;18.71;76.40
61478;BME280;47345;52.334;10.392;2023-06-22T02:57:24;101147.59;;;18.71;76.29
61478;BME280;47345;52.334;10.392;2023-06-22T02:59:55;101156.67;;;18.70;76.33
61478;BME280;47345;52.334;10.392;2023-06-22T03:02:26;101159.39;;;18.70;76.42
61478;BME280;47345;52.334;10.392;2023-06-22T03:04:57;101163.34;;;18.68;76.34
61478;BME280;47345;52.334;10.392;2023-06-22T03:07:30;101173.92;;;18.64;76.37
61478;BME280;47345;52.334;10.392;2023-06-22T03:10:02;101179.14;;;18.62;76.39
61478;BME280;47345;52.334;10.392;2023-06-22T03:12:33;101182.02;;;18.58;76.33
61478;BME280;47345;52.334;10.392;2023-06-22T03:15:04;101178.43;;;18.59;76.51
61478;BME280;47345;52.334;10.392;2023-06-22T03:17:36;101179.18;;;18.64;76.64
61478;BME280;47345;52.334;10.392;2023-06-22T03:20:09;101182.58;;;18.71;76.59
61478;BME280;47345;52.334;10.392;2023-06-22T03:22:41;101183.02;;;18.81;76.49
61478;BME280;47345;52.334;10.392;2023-06-22T03:25:13;101185.30;;;18.88;76.42
61478;BME280;47345;52.334;10.392;2023-06-22T03:27:44;101186.46;;;18.98;76.24
61478;BME280;47345;52.334;10.392;2023-06-22T03:30:14;101190.30;;;19.13;75.97
61478;BME280;47345;52.334;10.392;2023-06-22T03:32:45;101192.38;;;19.30;75.63
61478;BME280;47345;52.334;10.392;2023-06-22T03:35:17;101195.77;;;19.49;75.07
61478;BME280;47345;52.334;10.392;2023-06-22T03:37:48;101199.19;;;19.65;74.61
61478;BME280;47345;52.334;10.392;2023-06-22T03:40:18;101203.48;;;19.84;73.82
61478;BME280;47345;52.334;10.392;2023-06-22T03:42:49;101205.38;;;19.97;73.52
61478;BME280;47345;52.334;10.392;2023-06-22T03:45:20;101205.96;;;20.04;73.20
61478;BME280;47345;52.334;10.392;2023-06-22T03:47:51;101202.25;;;20.15;72.88
61478;BME280;47345;52.334;10.392;2023-06-22T03:50:23;101198.48;;;20.26;72.55
61478;BME280;47345;52.334;10.392;2023-06-22T03:52:54;101196.25;;;20.43;72.16
61478;BME280;47345;52.334;10.392;2023-06-22T03:55:25;101194.88;;;20.62;71.71
61478;BME280;47345;52.334;10.392;2023-06-22T03:57:56;101192.30;;;20.78;70.99
61478;BME280;47345;52.334;10.392;2023-06-22T04:00:27;101190.73;;;20.82;70.77
61478;BME280;47345;52.334;10.392;2023-06-22T04:02:58;101191.39;;;21.02;70.39
61478;BME280;47345;52.334;10.392;2023-06-22T04:05:30;101193.21;;;21.34;70.02
61478;BME280;47345;52.334;10.392;2023-06-22T04:08:01;101188.13;;;21.70;69.32
61478;BME280;47345;52.334;10.392;2023-06-22T04:10:31;101183.24;;;22.06;68.62
61478;BME280;47345;52.334;10.392;2023-06-22T04:13:02;101180.38;;;22.42;67.42
61478;BME280;47345;52.334;10.392;2023-06-22T04:15:33;101178.36;;;22.73;65.99
61478;BME280;47345;52.334;10.392;2023-06-22T04:18:04;101177.55;;;23.04;65.26
61478;BME280;47345;52.334;10.392;2023-06-22T04:20:35;101173.88;;;23.35;64.62
61478;BME280;47345;52.334;10.392;2023-06-22T04:23:06;101164.89;;;23.67;63.88
61478;BME280;47345;52.334;10.392;2023-06-22T04:25:37;101169.11;;;23.97;63.23
61478;BME280;47345;52.334;10.392;2023-06-22T04:28:08;101169.52;;;24.30;62.36
61478;BME280;47345;52.334;10.392;2023-06-22T04:30:41;101170.20;;;24.54;61.59
61478;BME280;47345;52.334;10.392;2023-06-22T04:33:16;101167.66;;;24.70;61.07
61478;BME280;47345;52.334;10.392;2023-06-22T04:35:47;101166.02;;;24.93;60.56
61478;BME280;47345;52.334;10.392;2023-06-22T04:38:17;101162.73;;;25.02;60.36
61478;BME280;47345;52.334;10.392;2023-06-22T04:40:51;101165.04;;;24.86;60.21
61478;BME280;47345;52.334;10.392;2023-06-22T04:43:22;101165.23;;;24.58;60.79
61478;BME280;47345;52.334;10.392;2023-06-22T04:45:53;101169.11;;;24.27;60.92
61478;BME280;47345;52.334;10.392;2023-06-22T04:48:24;101166.46;;;24.02;61.47
61478;BME280;47345;52.334;10.392;2023-06-22T04:50:54;101166.06;;;23.79;61.81
61478;BME280;47345;52.334;10.392;2023-06-22T04:53:29;101163.98;;;23.54;62.21
61478;BME280;47345;52.334;10.392;2023-06-22T04:56:00;101167.41;;;23.32;62.42
61478;BME280;47345;52.334;10.392;2023-06-22T04:58:34;101169.50;;;23.10;63.05
61478;BME280;47345;52.334;10.392;2023-06-22T05:01:04;101172.65;;;22.93;63.93
61478;BME280;47345;52.334;10.392;2023-06-22T05:03:38;101174.67;;;22.72;65.21
61478;BME280;47345;52.334;10.392;2023-06-22T05:06:11;101172.72;;;22.56;65.74
61478;BME280;47345;52.334;10.392;2023-06-22T05:08:43;101173.16;;;22.50;66.04
61478;BME280;47345;52.334;10.392;2023-06-22T05:11:14;101171.95;;;22.43;66.73
61478;BME280;47345;52.334;10.392;2023-06-22T05:13:44;101161.24;;;22.39;66.97
61478;BME280;47345;52.334;10.392;2023-06-22T05:16:15;101156.61;;;22.40;67.08
61478;BME280;47345;52.334;10.392;2023-06-22T05:18:46;101160.83;;;22.46;66.29
61478;BME280;47345;52.334;10.392;2023-06-22T05:21:17;101156.83;;;22.55;66.26
61478;BME280;47345;52.334;10.392;2023-06-22T05:23:48;101153.59;;;22.63;66.65
61478;BME280;47345;52.334;10.392;2023-06-22T05:26:19;101147.90;;;22.61;67.50
61478;BME280;47345;52.334;10.392;2023-06-22T05:29:07;101152.37;;;22.55;68.01
61478;BME280;47345;52.334;10.392;2023-06-22T05:31:56;101157.65;;;22.53;67.99
61478;BME280;47345;52.334;10.392;2023-06-22T05:34:44;101154.64;;;22.54;68.10
61478;BME280;47345;52.334;10.392;2023-06-22T05:37:15;101159.27;;;22.60;68.33
61478;BME280;47345;52.334;10.392;2023-06-22T05:39:46;101154.32;;;22.71;68.03
61478;BME280;47345;52.334;10.392;2023-06-22T05:42:16;101152.35;;;22.79;66.93
61478;BME280;47345;52.334;10.392;2023-06-22T05:44:47;101148.54;;;22.91;66.40
61478;BME280;47345;52.334;10.392;2023-06-22T05:47:18;101145.80;;;23.05;66.00
61478;BME280;47345;52.334;10.392;2023-06-22T05:49:49;101143.81;;;23.20;64.81
61478;BME280;47345;52.334;10.392;2023-06-22T05:52:19;101142.13;;;23.31;64.88
61478;BME280;47345;52.334;10.392;2023-06-22T05:54:51;101141.26;;;23.41;63.88
61478;BME280;47345;52.334;10.392;2023-06-22T05:57:22;101141.78;;;23.50;64.16
61478;BME280;47345;52.334;10.392;2023-06-22T05:59:53;101136.77;;;23.61;63.51
61478;BME280;47345;52.334;10.392;2023-06-22T06:02:23;101137.80;;;23.69;63.02
61478;BME280;47345;52.334;10.392;2023-06-22T06:04:54;101139.82;;;23.77;62.49
61478;BME280;47345;52.334;10.392;2023-06-22T06:07:25;101146.21;;;23.84;61.87
61478;BME280;47345;52.334;10.392;2023-06-22T06:09:56;101148.54;;;23.86;62.07
61478;BME280;47345;52.334;10.392;2023-06-22T06:12:27;101150.14;;;23.80;62.20
61478;BME280;47345;52.334;10.392;2023-06-22T06:14:58;101149.46;;;23.69;62.50
61478;BME280;47345;52.334;10.392;2023-06-22T06:17:29;101147.34;;;23.55;63.45
61478;BME280;47345;52.334;10.392;2023-06-22T06:20:00;101144.98;;;23.43;63.83
61478;BME280;47345;52.334;10.392;2023-06-22T06:22:33;101147.71;;;23.44;63.67
61478;BME280;47345;52.334;10.392;2023-06-22T06:25:05;101145.19;;;23.50;63.73
61478;BME280;47345;52.334;10.392;2023-06-22T06:27:36;101140.26;;;23.54;63.48
61478;BME280;47345;52.334;10.392;2023-06-22T06:30:09;101140.29;;;23.61;63.23
61478;BME280;47345;52.334;10.392;2023-06-22T06:32:40;101138.87;;;23.67;63.63
61478;BME280;47345;52.334;10.392;2023-06-22T06:35:12;101140.19;;;23.71;62.53
61478;BME280;47345;52.334;10.392;2023-06-22T06:37:44;101140.52;;;23.74;62.39
61478;BME280;47345;52.334;10.392;2023-06-22T06:40:16;101139.02;;;23.80;62.53
61478;BME280;47345;52.334;10.392;2023-06-22T06:42:48;101137.14;;;23.86;62.34
61478;BME280;47345;52.334;10.392;2023-06-22T06:45:20;101138.05;;;23.90;62.54
61478;BME280;47345;52.334;10.392;2023-06-22T06:47:53;101139.64;;;24.02;62.49
61478;BME280;47345;52.334;10.392;2023-06-22T06:50:24;101135.63;;;24.12;61.64
61478;BME280;47345;52.334;10.392;2023-06-22T06:52:55;101135.64;;;24.24;61.87
61478;BME280;47345;52.334;10.392;2023-06-22T06:55:29;101132.06;;;24.40;61.07
61478;BME280;47345;52.334;10.392;2023-06-22T06:58:03;101131.56;;;24.59;60.92
61478;BME280;47345;52.334;10.392;2023-06-22T07:00:37;101131.25;;;24.79;60.97
61478;BME280;47345;52.334;10.392;2023-06-22T07:03:08;101126.10;;;25.00;60.69
61478;BME280;47345;52.334;10.392;2023-06-22T07:05:39;101123.20;;;25.21;61.28
61478;BME280;47345;52.334;10.392;2023-06-22T07:08:10;101126.64;;;25.38;60.54
61478;BME280;47345;52.334;10.392;2023-06-22T07:10:41;101127.12;;;25.51;59.21
61478;BME280;47345;52.334;10.392;2023-06-22T07:13:11;101127.60;;;25.61;59.55
61478;BME280;47345;52.334;10.392;2023-06-22T07:15:43;101129.23;;;25.74;58.94
61478;BME280;47345;52.334;10.392;2023-06-22T07:18:14;101130.98;;;25.81;58.49
61478;BME280;47345;52.334;10.392;2023-06-22T07:20:45;101129.25;;;25.85;58.18
61478;BME280;47345;52.334;10.392;2023-06-22T07:23:17;101128.95;;;25.91;57.92
61478;BME280;47345;52.334;10.392;2023-06-22T07:25:48;101127.08;;;25.99;58.18
61478;BME280;47345;52.334;10.392;2023-06-22T07:28:19;101123.59;;;26.10;57.88
61478;BME280;47345;52.334;10.392;2023-06-22T07:30:50;101121.29;;;26.18;57.94
61478;BME280;47345;52.334;10.392;2023-06-22T07:33:21;101119.86;;;26.26;57.68
61478;BME280;47345;52.334;10.392;2023-06-22T07:35:52;101118.33;;;26.38;57.34
61478;BME280;47345;52.334;10.392;2023-06-22T07:38:23;101118.41;;;26.49;56.94
61478;BME280;47345;52.334;10.392;2023-06-22T07:40:54;101112.21;;;26.57;56.59
61478;BME280;47345;52.334;10.392;2023-06-22T07:43:25;101110.89;;;26.66;56.76
61478;BME280;47345;52.334;10.392;2023-06-22T07:45:56;101112.31;;;26.77;56.69
61478;BME280;47345;52.334;10.392;2023-06-22T07:48:27;101114.94;;;26.86;55.97
61478;BME280;47345;52.334;10.392;2023-06-22T07:50:57;101114.00;;;26.92;55.28
61478;BME280;47345;52.334;10.392;2023-06-22T07:53:28;101110.26;;;26.96;54.77
61478;BME280;47345;52.334;10.392;2023-06-22T07:55:59;101106.16;;;26.99;53.91
61478;BME280;47345;52.334;10.392;2023-06-22T07:58:29;101108.83;;;27.03;53.89
61478;BME280;47345;52.334;10.392;2023-06-22T08:01:00;101107.02;;;27.18;54.02
61478;BME280;47345;52.334;10.392;2023-06-22T08:03:31;101103.58;;;27.44;54.33
61478;BME280;47345;52.334;10.392;2023-06-22T08:06:03;101104.11;;;27.77;53.99
61478;BME280;47345;52.334;10.392;2023-06-22T08:08:34;101105.18;;;28.07;52.69
61478;BME280;47345;52.334;10.392;2023-06-22T08:11:05;101107.88;;;28.27;51.97
61478;BME280;47345;52.334;10.392;2023-06-22T08:13:36;101108.62;;;28.44;51.48
61478;BME280;47345;52.334;10.392;2023-06-22T08:16:07;101112.04;;;28.55;51.20
61478;BME280;47345;52.334;10.392;2023-06-22T08:18:38;101111.58;;;28.60;50.65
61478;BME280;47345;52.334;10.392;2023-06-22T08:21:09;101108.27;;;28.60;50.23
61478;BME280;47345;52.334;10.392;2023-06-22T08:23:40;101108.47;;;28.63;50.68
61478;BME280;47345;52.334;10.392;2023-06-22T08:26:11;101108.92;;;28.67;50.51
61478;BME280;47345;52.334;10.392;2023-06-22T08:28:43;101116.28;;;28.68;50.39
61478;BME280;47345;52.334;10.392;2023-06-22T08:31:14;101111.91;;;28.69;50.31
61478;BME280;47345;52.334;10.392;2023-06-22T08:33:45;101108.75;;;28.65;49.72
61478;BME280;47345;52.334;10.392;2023-06-22T08:36:18;101111.19;;;28.61;50.28
61478;BME280;47345;52.334;10.392;2023-06-22T08:38:50;101111.59;;;28.59;50.31
61478;BME280;47345;52.334;10.392;2023-06-22T08:41:22;101108.27;;;28.55;50.19
61478;BME280;47345;52.334;10.392;2023-06-22T08:43:54;101107.55;;;28.57;50.56
61478;BME280;47345;52.334;10.392;2023-06-22T08:46:25;101112.79;;;28.65;50.99
61478;BME280;47345;52.334;10.392;2023-06-22T08:49:01;101112.37;;;28.67;50.03
61478;BME280;47345;52.334;10.392;2023-06-22T08:51:31;101112.06;;;28.59;50.10
61478;BME280;47345;52.334;10.392;2023-06-22T08:54:02;101109.33;;;28.56;50.21
61478;BME280;47345;52.334;10.392;2023-06-22T08:56:33;101108.79;;;28.53;49.98
61478;BME280;47345;52.334;10.392;2023-06-22T08:59:04;101111.14;;;28.53;50.53
61478;BME280;47345;52.334;10.392;2023-06-22T09:01:36;101107.80;;;28.61;50.77
61478;BME280;47345;52.334;10.392;2023-06-22T09:04:08;101109.93;;;28.65;50.30
61478;BME280;47345;52.334;10.392;2023-06-22T09:06:40;101110.22;;;28.67;50.42
61478;BME280;47345;52.334;10.392;2023-06-22T09:09:15;101104.89;;;28.75;50.32
61478;BME280;47345;52.334;10.392;2023-06-22T09:11:46;101100.38;;;28.85;50.04
61478;BME280;47345;52.334;10.392;2023-06-22T09:14:17;101103.10;;;29.01;49.89
61478;BME280;47345;52.334;10.392;2023-06-22T09:16:48;101100.02;;;29.20;50.05
61478;BME280;47345;52.334;10.392;2023-06-22T09:19:18;101089.54;;;29.34;49.89
61478;BME280;47345;52.334;10.392;2023-06-22T09:21:49;101088.51;;;29.49;49.72
61478;BME280;47345;52.334;10.392;2023-06-22T09:24:20;101078.98;;;29.64;49.33
61478;BME280;47345;52.334;10.392;2023-06-22T09:26:51;101074.41;;;29.88;48.74
61478;BME280;47345;52.334;10.392;2023-06-22T09:29:21;101067.61;;;30.08;48.03
61478;BME280;47345;52.334;10.392;2023-06-22T09:31:52;101064.11;;;30.20;48.02
61478;BME280;47345;52.334;10.392;2023-06-22T09:34:25;101063.11;;;30.36;47.76
61478;BME280;47345;52.334;10.392;2023-06-22T09:36:56;101065.96;;;30.55;47.46
61478;BME280;47345;52.334;10.392;2023-06-22T09:39:29;101057.10;;;30.72;47.55
61478;BME280;47345;52.334;10.392;2023-06-22T09:42:00;101045.73;;;30.83;47.16
61478;BME280;47345;52.334;10.392;2023-06-22T09:44:31;101042.04;;;30.84;46.67
61478;BME280;47345;52.334;10.392;2023-06-22T09:47:02;101046.67;;;30.85;46.69
61478;BME280;47345;52.334;10.392;2023-06-22T09:49:33;101042.89;;;30.83;46.99
61478;BME280;47345;52.334;10.392;2023-06-22T09:52:08;101042.55;;;30.87;46.52
61478;BME280;47345;52.334;10.392;2023-06-22T09:54:40;101044.11;;;30.97;46.84
61478;BME280;47345;52.334;10.392;2023-06-22T09:57:11;101043.96;;;31.11;46.37
61478;BME280;47345;52.334;10.392;2023-06-22T09:59:42;101046.69;;;31.24;46.07
61478;BME280;47345;52.334;10.392;2023-06-22T10:02:13;101042.66;;;31.40;45.49
61478;BME280;47345;52.334;10.392;2023-06-22T10:04:44;101046.94;;;31.51;45.06
61478;BME280;47345;52.334;10.392;2023-06-22T10:07:15;101050.63;;;31.60;44.96
61478;BME280;47345;52.334;10.392;2023-06-22T10:09:46;101040.79;;;31.73;45.06
61478;BME280;47345;52.334;10.392;2023-06-22T10:12:17;101033.52;;;31.88;45.07
61478;BME280;47345;52.334;10.392;2023-06-22T10:14:48;101031.60;;;32.02;45.41
61478;BME280;47345;52.334;10.392;2023-06-22T10:17:19;101036.58;;;32.14;45.43
61478;BME280;47345;52.334;10.392;2023-06-22T10:19:50;101036.35;;;32.15;45.83
61478;BME280;47345;52.334;10.392;2023-06-22T10:22:21;101035.48;;;32.20;45.12
61478;BME280;47345;52.334;10.392;2023-06-22T10:24:52;101038.42;;;32.25;45.11
61478;BME280;47345;52.334;10.392;2023-06-22T10:27:22;101033.86;;;32.40;44.87
61478;BME280;47345;52.334;10.392;2023-06-22T10:29:53;101030.45;;;32.56;43.84
61478;BME280;47345;52.334;10.392;2023-06-22T10:32:24;101032.74;;;32.59;43.95
61478;BME280;47345;52.334;10.392;2023-06-22T10:34:55;101033.23;;;32.61;43.96
61478;BME280;47345;52.334;10.392;2023-06-22T10:37:28;101032.05;;;32.64;43.97
61478;BME280;47345;52.334;10.392;2023-06-22T10:39:59;101028.84;;;32.65;44.43
61478;BME280;47345;52.334;10.392;2023-06-22T10:42:30;101028.84;;;32.73;43.53
61478;BME280;47345;52.334;10.392;2023-06-22T10:45:01;101032.20;;;32.71;43.03
61478;BME280;47345;52.334;10.392;2023-06-22T10:47:32;101026.20;;;32.68;43.19
61478;BME280;47345;52.334;10.392;2023-06-22T10:50:05;101023.39;;;32.62;43.08
61478;BME280;47345;52.334;10.392;2023-06-22T10:52:36;101018.11;;;32.54;43.14
61478;BME280;47345;52.334;10.392;2023-06-22T10:55:08;101017.67;;;32.46;42.82
61478;BME280;47345;52.334;10.392;2023-06-22T10:57:39;101011.62;;;32.37;43.01
61478;BME280;47345;52.334;10.392;2023-06-22T11:00:14;101005.91;;;32.38;44.09
61478;BME280;47345;52.334;10.392;2023-06-22T11:02:45;101005.08;;;32.40;43.44
61478;BME280;47345;52.334;10.392;2023-06-22T11:05:16;101000.97;;;32.36;43.36
61478;BME280;47345;52.334;10.392;2023-06-22T11:07:48;101000.53;;;32.32;43.10
61478;BME280;47345;52.334;10.392;2023-06-22T11:10:19;100996.73;;;32.37;43.36
61478;BME280;47345;52.334;10.392;2023-06-22T11:12:50;100992.98;;;32.53;43.34
61478;BME280;47345;52.334;10.392;2023-06-22T11:15:22;100991.04;;;32.65;42.59
61478;BME280;47345;52.334;10.392;2023-06-22T11:17:53;100990.85;;;32.71;43.35
61478;BME280;47345;52.334;10.392;2023-06-22T11:20:24;100989.05;;;32.78;42.80
61478;BME280;47345;52.334;10.392;2023-06-22T11:22:54;100986.75;;;32.93;42.80
61478;BME280;47345;52.334;10.392;2023-06-22T11:25:25;100981.07;;;33.22;42.86
61478;BME280;47345;52.334;10.392;2023-06-22T11:27:55;100974.29;;;33.38;42.29
61478;BME280;47345;52.334;10.392;2023-06-22T11:30:26;100974.77;;;33.52;41.49
61478;BME280;47345;52.334;10.392;2023-06-22T11:32:58;100969.48;;;33.62;40.96
61478;BME280;47345;52.334;10.392;2023-06-22T11:35:29;100968.42;;;33.70;40.23
61478;BME280;47345;52.334;10.392;2023-06-22T11:38:00;100966.25;;;33.70;40.55
61478;BME280;47345;52.334;10.392;2023-06-22T11:40:32;100955.61;;;33.81;41.05
61478;BME280;47345;52.334;10.392;2023-06-22T11:43:03;100956.25;;;34.07;41.31
61478;BME280;47345;52.334;10.392;2023-06-22T11:45:34;100949.06;;;34.14;40.83
61478;BME280;47345;52.334;10.392;2023-06-22T11:48:05;100942.08;;;34.04;39.90
61478;BME280;47345;52.334;10.392;2023-06-22T11:50:36;100932.50;;;33.69;39.45
61478;BME280;47345;52.334;10.392;2023-06-22T11:53:07;100926.07;;;33.51;39.97
61478;BME280;47345;52.334;10.392;2023-06-22T11:55:37;100920.33;;;33.69;40.41
61478;BME280;47345;52.334;10.392;2023-06-22T11:58:08;100917.33;;;33.98;40.10
61478;BME280;47345;52.334;10.392;2023-06-22T12:00:39;100908.91;;;34.17;40.28
61478;BME280;47345;52.334;10.392;2023-06-22T12:03:20;100897.36;;;34.28;41.14
61478;BME280;47345;52.334;10.392;2023-06-22T12:05:52;100898.99;;;34.48;39.64
61478;BME280;47345;52.334;10.392;2023-06-22T12:08:23;100895.14;;;34.59;39.30
61478;BME280;47345;52.334;10.392;2023-06-22T12:10:54;100890.91;;;34.66;38.80
61478;BME280;47345;52.334;10.392;2023-06-22T12:13:25;100887.41;;;34.55;37.96
61478;BME280;47345;52.334;10.392;2023-06-22T12:15:56;100878.70;;;34.28;37.91
61478;BME280;47345;52.334;10.392;2023-06-22T12:18:26;100871.30;;;34.17;38.20
61478;BME280;47345;52.334;10.392;2023-06-22T12:20:57;100868.80;;;34.18;38.26
61478;BME280;47345;52.334;10.392;2023-06-22T12:23:28;100866.77;;;34.27;38.29
61478;BME280;47345;52.334;10.392;2023-06-22T12:25:59;100862.14;;;34.37;37.87
61478;BME280;47345;52.334;10.392;2023-06-22T12:28:31;100859.06;;;34.60;37.94
61478;BME280;47345;52.334;10.392;2023-06-22T12:31:01;100859.05;;;34.89;38.39
61478;BME280;47345;52.334;10.392;2023-06-22T12:33:33;100855.19;;;35.04;38.09
61478;BME280;47345;52.334;10.392;2023-06-22T12:36:04;100854.65;;;35.10;37.31
61478;BME280;47345;52.334;10.392;2023-06-22T12:38:35;100856.63;;;35.00;36.74
61478;BME280;47345;52.334;10.392;2023-06-22T12:41:06;100852.34;;;34.90;37.17
61478;BME280;47345;52.334;10.392;2023-06-22T12:43:36;100844.73;;;34.98;37.50
61478;BME280;47345;52.334;10.392;2023-06-22T12:46:07;100839.87;;;35.10;37.48
61478;BME280;47345;52.334;10.392;2023-06-22T12:48:37;100833.52;;;35.21;37.31
61478;BME280;47345;52.334;10.392;2023-06-22T12:51:11;100831.48;;;35.28;37.27
61478;BME280;47345;52.334;10.392;2023-06-22T12:53:42;100830.88;;;35.35;37.40
61478;BME280;47345;52.334;10.392;2023-06-22T12:56:13;100828.89;;;35.29;36.65
61478;BME280;47345;52.334;10.392;2023-06-22T12:58:44;100826.23;;;35.14;36.44
61478;BME280;47345;52.334;10.392;2023-06-22T13:01:15;100825.80;;;34.84;36.28
61478;BME280;47345;52.334;10.392;2023-06-22T13:03:48;100826.70;;;34.44;36.13